createdAt,value
2022-08-01T00:01:22.738Z,23.86
2022-08-01T00:04:11.427Z,23.82
2022-08-01T00:06:59.948Z,23.90
2022-08-01T00:09:48.440Z,23.81
2022-08-01T00:12:40.051Z,23.72
2022-08-01T00:15:29.953Z,23.69
2022-08-01T00:18:18.432Z,23.65
2022-08-01T00:21:07.062Z,23.60
2022-08-01T00:23:55.639Z,23.55
2022-08-01T00:26:44.197Z,23.54
2022-08-01T00:30:01.120Z,23.57
2022-08-01T00:32:44.471Z,23.54
2022-08-01T00:35:33.030Z,23.48
2022-08-01T00:38:23.179Z,23.41
2022-08-01T00:41:11.705Z,23.44
2022-08-01T00:44:00.274Z,23.38
2022-08-01T00:46:48.899Z,23.36
2022-08-01T00:49:38.901Z,23.30
2022-08-01T00:52:27.442Z,23.19
2022-08-01T00:55:16.044Z,23.22
2022-08-01T00:58:06.932Z,23.08
2022-08-01T01:00:55.577Z,23.14
2022-08-01T01:03:58.766Z,23.14
2022-08-01T01:06:56.893Z,23.11
2022-08-01T01:09:51.203Z,23.15
2022-08-01T01:12:49.986Z,23.16
2022-08-01T01:15:46.752Z,23.11
2022-08-01T01:18:39.928Z,23.10
2022-08-01T01:21:58.054Z,23.06
2022-08-01T01:25:00.387Z,22.91
2022-08-01T01:27:55.198Z,23.10
2022-08-01T01:30:47.156Z,23.02
2022-08-01T01:33:47.155Z,22.77
2022-08-01T01:36:36.646Z,22.87
2022-08-01T01:39:26.689Z,22.80
2022-08-01T01:42:17.132Z,22.74
2022-08-01T01:45:07.662Z,22.69
2022-08-01T01:47:58.587Z,22.70
2022-08-01T01:50:48.568Z,22.69
2022-08-01T01:53:38.017Z,22.64
2022-08-01T01:56:26.791Z,22.61
2022-08-01T01:59:15.349Z,22.61
2022-08-01T02:02:15.307Z,22.39
2022-08-01T02:05:06.587Z,22.62
2022-08-01T02:07:59.680Z,22.46
2022-08-01T02:11:02.588Z,22.39
2022-08-01T02:13:55.415Z,22.24
2022-08-01T02:16:46.545Z,22.27
2022-08-01T02:19:38.000Z,22.23
2022-08-01T02:22:32.762Z,22.14
2022-08-01T02:25:27.516Z,22.07
2022-08-01T02:28:23.932Z,22.03
2022-08-01T02:31:16.344Z,21.99
2022-08-01T02:34:08.380Z,22.02
2022-08-01T02:36:58.397Z,22.00
2022-08-01T02:39:48.676Z,22.05
2022-08-01T02:42:38.855Z,22.18
2022-08-01T02:45:28.343Z,22.23
2022-08-01T02:48:18.433Z,22.03
2022-08-01T02:51:08.577Z,21.96
2022-08-01T02:53:57.684Z,21.93
2022-08-01T02:56:48.997Z,21.80
2022-08-01T02:59:41.354Z,21.41
2022-08-01T03:02:31.240Z,21.74
2022-08-01T03:05:19.872Z,21.74
2022-08-01T03:08:12.070Z,21.66
2022-08-01T03:11:04.381Z,21.51
2022-08-01T03:13:55.464Z,21.40
2022-08-01T03:16:47.451Z,21.06
2022-08-01T03:19:36.260Z,21.10
2022-08-01T03:22:28.831Z,20.97
2022-08-01T03:25:18.122Z,20.88
2022-08-01T03:28:08.240Z,20.81
2022-08-01T03:31:00.706Z,20.58
2022-08-01T03:33:50.691Z,20.54
2022-08-01T03:36:45.110Z,20.56
2022-08-01T03:39:39.537Z,20.43
2022-08-01T03:42:34.784Z,20.44
2022-08-01T03:45:25.184Z,20.33
2022-08-01T03:48:18.483Z,20.29
2022-08-01T03:51:07.950Z,20.25
2022-08-01T03:53:57.531Z,20.13
2022-08-01T03:56:47.817Z,20.17
2022-08-01T03:59:38.009Z,20.04
2022-08-01T04:02:27.459Z,19.98
2022-08-01T04:05:18.049Z,19.98
2022-08-01T04:08:06.851Z,19.95
2022-08-01T04:10:55.413Z,19.95
2022-08-01T04:13:44.451Z,19.83
2022-08-01T04:16:33.119Z,19.91
2022-08-01T04:19:24.619Z,19.92
2022-08-01T04:22:16.482Z,19.68
2022-08-01T04:25:10.153Z,19.86
2022-08-01T04:28:01.362Z,19.87
2022-08-01T04:30:59.757Z,19.85
2022-08-01T04:33:52.013Z,19.91
2022-08-01T04:36:42.969Z,19.89
2022-08-01T04:39:34.109Z,19.90
2022-08-01T04:42:40.322Z,19.91
2022-08-01T04:45:29.164Z,19.98
2022-08-01T04:48:20.256Z,20.10
2022-08-01T04:51:16.172Z,20.23
2022-08-01T04:54:05.505Z,20.40
2022-08-01T04:56:56.581Z,20.62
2022-08-01T04:59:47.196Z,20.79
2022-08-01T05:02:35.873Z,20.92
2022-08-01T05:05:27.151Z,21.14
2022-08-01T05:08:17.296Z,21.30
2022-08-01T05:11:06.068Z,21.47
2022-08-01T05:13:55.953Z,21.65
2022-08-01T05:16:44.517Z,21.81
2022-08-01T05:19:35.222Z,21.90
2022-08-01T05:22:26.435Z,21.96
2022-08-01T05:25:19.956Z,22.08
2022-08-01T05:28:09.261Z,22.19
2022-08-01T05:30:59.195Z,22.27
2022-08-01T05:33:47.701Z,22.40
2022-08-01T05:36:38.506Z,21.01
2022-08-01T05:39:27.052Z,22.54
2022-08-01T05:42:15.559Z,22.62
2022-08-01T05:45:04.393Z,22.71
2022-08-01T05:47:54.265Z,22.82
2022-08-01T05:50:44.556Z,22.97
2022-08-01T05:53:35.450Z,23.06
2022-08-01T05:56:24.258Z,23.12
2022-08-01T05:59:12.784Z,23.15
2022-08-01T06:02:01.415Z,23.22
2022-08-01T06:04:51.375Z,23.30
2022-08-01T06:07:40.612Z,23.44
2022-08-01T06:10:29.240Z,23.54
2022-08-01T06:13:17.883Z,23.58
2022-08-01T06:16:06.869Z,23.66
2022-08-01T06:18:56.979Z,23.81
2022-08-01T06:21:47.013Z,23.93
2022-08-01T06:24:35.581Z,24.01
2022-08-01T06:27:26.980Z,24.06
2022-08-01T06:30:15.838Z,24.24
2022-08-01T06:33:05.686Z,24.24
2022-08-01T06:35:54.272Z,24.50
2022-08-01T06:38:44.104Z,24.67
2022-08-01T06:41:34.351Z,24.80
2022-08-01T06:44:25.652Z,25.00
2022-08-01T06:47:14.406Z,25.20
2022-08-01T06:50:03.015Z,25.43
2022-08-01T06:52:51.611Z,25.28
2022-08-01T06:55:44.491Z,25.35
2022-08-01T06:58:33.095Z,25.42
2022-08-01T07:01:21.722Z,25.52
2022-08-01T07:04:12.703Z,25.75
2022-08-01T07:07:01.284Z,25.94
2022-08-01T07:09:49.811Z,26.07
2022-08-01T07:12:42.042Z,26.25
2022-08-01T07:15:30.599Z,26.35
2022-08-01T07:18:19.157Z,26.45
2022-08-01T07:21:16.416Z,26.48
2022-08-01T07:24:16.404Z,26.60
2022-08-01T07:27:23.015Z,26.77
2022-08-01T07:30:15.182Z,26.91
2022-08-01T07:33:04.820Z,27.04
2022-08-01T07:35:53.344Z,26.95
2022-08-01T07:38:41.901Z,26.89
2022-08-01T07:41:53.095Z,26.82
2022-08-01T07:44:39.349Z,27.05
2022-08-01T07:47:32.575Z,27.26
2022-08-01T07:50:21.073Z,27.47
2022-08-01T07:53:11.222Z,27.60
2022-08-01T07:56:00.743Z,27.57
2022-08-01T07:58:49.293Z,27.77
2022-08-01T08:01:37.907Z,27.88
2022-08-01T08:04:28.258Z,28.14
2022-08-01T08:07:16.854Z,28.43
2022-08-01T08:10:06.712Z,28.57
2022-08-01T08:12:55.310Z,28.66
2022-08-01T08:15:44.329Z,28.60
2022-08-01T08:18:37.070Z,28.69
2022-08-01T08:21:28.536Z,28.48
2022-08-01T08:24:26.146Z,28.53
2022-08-01T08:27:16.189Z,28.62
2022-08-01T08:30:06.799Z,28.93
2022-08-01T08:32:55.304Z,29.10
2022-08-01T08:35:54.000Z,29.05
2022-08-01T08:38:44.254Z,29.18
2022-08-01T08:41:37.706Z,29.08
2022-08-01T08:44:26.854Z,29.35
2022-08-01T08:47:20.226Z,29.20
2022-08-01T08:50:09.584Z,29.01
2022-08-01T08:52:58.395Z,29.05
2022-08-01T08:55:55.343Z,29.10
2022-08-01T08:58:46.741Z,28.96
2022-08-01T09:01:36.194Z,29.07
2022-08-01T09:04:25.814Z,28.84
2022-08-01T09:07:15.282Z,28.79
2022-08-01T09:10:03.913Z,29.15
2022-08-01T09:13:08.543Z,29.45
2022-08-01T09:15:59.685Z,29.56
2022-08-01T09:18:53.536Z,29.73
2022-08-01T09:21:57.869Z,29.90
2022-08-01T09:25:00.115Z,30.03
2022-08-01T09:27:48.723Z,30.23
2022-08-01T09:30:41.525Z,30.39
2022-08-01T09:33:48.941Z,30.57
2022-08-01T09:36:54.361Z,30.41
2022-08-01T09:39:44.229Z,30.49
2022-08-01T09:42:32.780Z,30.48
2022-08-01T09:45:41.582Z,30.50
2022-08-01T09:48:34.173Z,30.41
2022-08-01T09:51:59.708Z,30.54
2022-08-01T09:54:39.376Z,30.53
2022-08-01T09:57:29.480Z,30.44
2022-08-01T10:00:43.810Z,30.20
2022-08-01T10:03:30.534Z,30.18
2022-08-01T10:06:25.401Z,30.36
2022-08-01T10:09:15.305Z,30.16
2022-08-01T10:12:05.315Z,30.08
2022-08-01T10:14:56.327Z,29.67
2022-08-01T10:17:50.632Z,29.67
2022-08-01T10:20:40.128Z,29.56
2022-08-01T10:23:40.030Z,29.24
2022-08-01T10:26:30.692Z,29.07
2022-08-01T10:29:46.730Z,28.96
2022-08-01T10:32:29.781Z,29.24
2022-08-01T10:35:46.018Z,28.96
2022-08-01T10:38:30.845Z,29.06
2022-08-01T10:41:20.878Z,29.20
2022-08-01T10:44:10.000Z,29.34
2022-08-01T10:47:02.027Z,29.29
2022-08-01T10:49:59.690Z,29.16
2022-08-01T10:53:15.241Z,29.21
2022-08-01T10:56:10.967Z,29.21
2022-08-01T10:59:06.171Z,29.01
2022-08-01T11:02:02.957Z,28.78
2022-08-01T11:04:57.199Z,29.07
2022-08-01T11:07:50.111Z,29.34
2022-08-01T11:10:40.387Z,29.58
2022-08-01T11:14:12.933Z,30.07
2022-08-01T11:17:37.455Z,30.69
2022-08-01T11:20:32.134Z,30.98
2022-08-01T11:23:23.348Z,31.13
2022-08-01T11:26:17.384Z,30.93
2022-08-01T11:29:29.954Z,30.68
2022-08-01T11:32:28.414Z,30.44
2022-08-01T11:35:19.248Z,30.31
2022-08-01T11:38:25.693Z,30.05
2022-08-01T11:41:15.795Z,30.60
2022-08-01T11:44:06.451Z,30.80
2022-08-01T11:47:09.754Z,30.44
2022-08-01T11:50:00.501Z,30.18
2022-08-01T11:52:59.422Z,30.40
2022-08-01T11:55:51.292Z,30.02
2022-08-01T11:58:40.360Z,30.58
2022-08-01T12:01:30.567Z,30.53
2022-08-01T12:04:19.435Z,30.63
2022-08-01T12:07:14.083Z,30.49
2022-08-01T12:10:06.113Z,30.44
2022-08-01T12:12:56.500Z,30.58
2022-08-01T12:15:47.105Z,31.18
2022-08-01T12:18:40.597Z,31.47
2022-08-01T12:21:29.116Z,31.17
2022-08-01T12:24:24.073Z,31.14
2022-08-01T12:27:26.132Z,30.85
2022-08-01T12:30:16.173Z,30.67
2022-08-01T12:33:05.925Z,30.22
2022-08-01T12:35:54.748Z,31.16
2022-08-01T12:38:43.347Z,31.33
2022-08-01T12:41:37.441Z,31.08
2022-08-01T12:44:27.517Z,31.22
2022-08-01T12:47:17.100Z,31.18
2022-08-01T12:50:07.955Z,30.74
2022-08-01T12:52:56.828Z,31.56
2022-08-01T12:55:58.020Z,31.82
2022-08-01T12:58:50.837Z,31.90
2022-08-01T13:01:43.049Z,32.18
2022-08-01T13:04:31.753Z,32.10
2022-08-01T13:07:20.398Z,31.65
2022-08-01T13:10:09.818Z,31.13
2022-08-01T13:13:00.821Z,30.89
2022-08-01T13:15:49.382Z,30.54
2022-08-01T13:18:53.422Z,30.68
2022-08-01T13:21:55.704Z,30.67
2022-08-01T13:24:44.305Z,30.49
2022-08-01T13:27:32.925Z,30.51
2022-08-01T13:30:23.952Z,30.51
2022-08-01T13:33:15.368Z,30.80
2022-08-01T13:36:08.100Z,30.73
2022-08-01T13:39:14.360Z,30.71
2022-08-01T13:42:02.944Z,30.93
2022-08-01T13:44:51.554Z,31.27
2022-08-01T13:47:40.146Z,31.62
2022-08-01T13:51:07.325Z,31.56
2022-08-01T13:53:58.451Z,31.78
2022-08-01T13:56:47.033Z,31.50
2022-08-01T13:59:35.636Z,31.17
2022-08-01T14:02:24.196Z,31.03
2022-08-01T14:05:12.840Z,30.72
2022-08-01T14:08:01.463Z,30.62
2022-08-01T14:10:52.946Z,30.50
2022-08-01T14:13:46.901Z,30.48
2022-08-01T14:16:35.552Z,30.38
2022-08-01T14:19:37.492Z,30.35
2022-08-01T14:22:27.498Z,30.05
2022-08-01T14:25:24.077Z,30.08
2022-08-01T14:28:28.316Z,30.32
2022-08-01T14:31:17.043Z,30.68
2022-08-01T14:34:05.554Z,30.92
2022-08-01T14:36:55.389Z,31.05
2022-08-01T14:39:53.470Z,31.05
2022-08-01T14:42:45.096Z,31.19
2022-08-01T14:45:35.144Z,31.56
2022-08-01T14:48:23.824Z,31.66
2022-08-01T14:51:12.494Z,31.88
2022-08-01T14:54:04.161Z,31.77
2022-08-01T14:56:54.014Z,31.44
2022-08-01T14:59:42.787Z,31.15
2022-08-01T15:02:32.776Z,30.91
2022-08-01T15:05:23.958Z,30.55
2022-08-01T15:08:14.716Z,30.49
2022-08-01T15:11:03.401Z,30.18
2022-08-01T15:14:12.135Z,30.02
2022-08-01T15:17:00.677Z,30.07
2022-08-01T15:19:52.508Z,30.13
2022-08-01T15:22:41.189Z,30.13
2022-08-01T15:25:41.346Z,30.07
2022-08-01T15:28:32.698Z,29.91
2022-08-01T15:31:21.272Z,29.73
2022-08-01T15:34:10.262Z,29.63
2022-08-01T15:37:00.514Z,29.56
2022-08-01T15:39:49.357Z,29.63
2022-08-01T15:42:38.169Z,29.65
2022-08-01T15:48:39.929Z,29.45
2022-08-01T15:51:28.871Z,29.28
2022-08-01T15:54:19.386Z,29.35
2022-08-01T15:57:10.738Z,28.99
2022-08-01T15:59:59.310Z,29.09
2022-08-01T16:02:48.318Z,28.98
2022-08-01T16:05:43.497Z,28.81
2022-08-01T16:08:32.784Z,28.78
2022-08-01T16:11:24.238Z,28.78
2022-08-01T16:14:13.449Z,28.75
2022-08-01T16:17:02.023Z,28.62
2022-08-01T16:19:51.658Z,28.61
2022-08-01T16:22:40.213Z,28.58
2022-08-01T16:25:28.818Z,28.54
2022-08-01T16:28:18.745Z,28.52
2022-08-01T16:31:17.006Z,28.55
2022-08-01T16:34:10.301Z,28.59
2022-08-01T16:37:02.557Z,28.55
2022-08-01T16:39:51.083Z,28.43
2022-08-01T16:42:39.708Z,28.55
2022-08-01T16:45:29.641Z,28.58
2022-08-01T16:48:18.486Z,28.52
2022-08-01T16:51:07.242Z,28.59
2022-08-01T16:53:55.897Z,28.57
2022-08-01T16:56:47.343Z,28.59
2022-08-01T16:59:41.186Z,28.53
2022-08-01T17:02:31.906Z,28.43
2022-08-01T17:05:21.193Z,28.36
2022-08-01T17:08:12.590Z,28.25
2022-08-01T17:11:01.573Z,28.12
2022-08-01T17:13:54.134Z,28.09
2022-08-01T17:16:42.808Z,28.10
2022-08-01T17:19:33.411Z,28.03
2022-08-01T17:22:22.093Z,28.05
2022-08-01T17:25:16.039Z,27.98
2022-08-01T17:28:06.684Z,28.07
2022-08-01T17:30:55.613Z,28.10
2022-08-01T17:33:46.028Z,28.05
2022-08-01T17:36:36.873Z,28.01
2022-08-01T17:39:38.455Z,28.02
2022-08-01T17:42:30.169Z,27.98
2022-08-01T17:45:28.173Z,27.92
2022-08-01T17:48:17.315Z,27.78
2022-08-01T17:51:06.423Z,27.63
2022-08-01T17:53:57.631Z,27.57
2022-08-01T17:56:46.432Z,27.54
2022-08-01T17:59:35.066Z,27.53
2022-08-01T18:02:23.936Z,27.58
2022-08-01T18:05:12.892Z,27.57
2022-08-01T18:08:04.369Z,27.51
2022-08-01T18:10:59.467Z,27.38
2022-08-01T18:13:50.881Z,27.37
2022-08-01T18:16:39.466Z,27.30
2022-08-01T18:19:28.038Z,27.08
2022-08-01T18:22:33.813Z,27.27
2022-08-01T18:25:23.237Z,27.17
2022-08-01T18:28:29.148Z,27.07
2022-08-01T18:31:21.169Z,27.08
2022-08-01T18:34:09.914Z,27.01
2022-08-01T18:36:58.737Z,27.00
2022-08-01T18:39:47.958Z,26.87
2022-08-01T18:42:36.521Z,26.80
2022-08-01T18:45:26.439Z,26.77
2022-08-01T18:48:14.952Z,26.73
2022-08-01T18:51:03.563Z,26.71
2022-08-01T18:53:57.838Z,26.61
2022-08-01T18:56:47.209Z,26.62
2022-08-01T18:59:35.824Z,26.64
2022-08-01T19:02:30.049Z,26.62
2022-08-01T19:05:18.641Z,26.63
2022-08-01T19:08:08.231Z,26.66
2022-08-01T19:10:59.857Z,26.66
2022-08-01T19:13:50.643Z,26.60
2022-08-01T19:16:39.237Z,26.59
2022-08-01T19:19:29.158Z,26.57
2022-08-01T19:22:18.600Z,26.58
2022-08-01T19:25:07.798Z,26.57
2022-08-01T19:27:57.598Z,26.52
2022-08-01T19:30:46.200Z,26.53
2022-08-01T19:33:42.976Z,26.46
2022-08-01T19:36:32.964Z,26.42
2022-08-01T19:39:23.746Z,26.39
2022-08-01T19:42:13.813Z,26.35
2022-08-01T19:45:07.746Z,26.23
2022-08-01T19:47:58.028Z,26.29
2022-08-01T19:50:47.721Z,26.29
2022-08-01T19:53:41.893Z,26.27
2022-08-01T19:56:33.482Z,26.25
2022-08-01T19:59:23.853Z,26.12
2022-08-01T20:02:16.796Z,26.10
2022-08-01T20:05:06.029Z,25.28
2022-08-01T20:07:55.023Z,26.20
2022-08-01T20:10:44.969Z,26.14
2022-08-01T20:13:36.705Z,26.11
2022-08-01T20:16:28.382Z,25.91
2022-08-01T20:19:18.274Z,26.02
2022-08-01T20:22:08.365Z,25.96
2022-08-01T20:25:00.011Z,25.95
2022-08-01T20:27:49.961Z,25.92
2022-08-01T20:30:38.995Z,25.90
2022-08-01T20:33:28.016Z,25.86
2022-08-01T20:36:25.213Z,25.74
2022-08-01T20:39:15.497Z,25.74
2022-08-01T20:42:05.005Z,25.64
2022-08-01T20:44:56.314Z,25.71
2022-08-01T20:47:45.212Z,25.59
2022-08-01T20:50:53.794Z,25.45
2022-08-01T20:53:44.623Z,25.47
2022-08-01T20:56:38.038Z,25.46
2022-08-01T20:59:55.058Z,25.30
2022-08-01T21:02:51.544Z,25.20
2022-08-01T21:05:55.906Z,25.24
2022-08-01T21:08:49.944Z,25.17
2022-08-01T21:11:41.348Z,24.19
2022-08-01T21:14:43.309Z,25.05
2022-08-01T21:17:40.144Z,24.94
2022-08-01T21:20:32.339Z,24.04
2022-08-01T21:23:23.183Z,24.57
2022-08-01T21:26:12.505Z,24.72
2022-08-01T21:29:02.444Z,24.62
2022-08-01T21:32:11.521Z,24.60
2022-08-01T21:35:00.234Z,24.57
2022-08-01T21:37:52.754Z,24.58
2022-08-01T21:40:44.848Z,24.50
2022-08-01T21:43:35.961Z,24.40
2022-08-01T21:46:26.744Z,24.35
2022-08-01T21:49:15.410Z,24.30
2022-08-01T21:52:08.438Z,24.15
2022-08-01T21:55:02.735Z,24.05
2022-08-01T21:57:59.119Z,24.05
2022-08-01T22:00:53.148Z,23.92
2022-08-01T22:03:46.329Z,23.95
2022-08-01T22:06:36.590Z,23.74
2022-08-01T22:09:25.226Z,23.82
2022-08-01T22:12:18.321Z,23.76
2022-08-01T22:15:08.891Z,23.71
2022-08-01T22:17:57.610Z,23.65
2022-08-01T22:20:48.222Z,23.60
2022-08-01T22:23:37.863Z,23.54
2022-08-01T22:26:29.321Z,23.44
2022-08-01T22:29:20.074Z,23.35
2022-08-01T22:32:08.961Z,23.26
2022-08-01T22:34:59.628Z,23.12
2022-08-01T22:37:56.515Z,23.15
2022-08-01T22:40:50.208Z,23.01
2022-08-01T22:43:41.209Z,22.73
2022-08-01T22:46:38.137Z,22.86
2022-08-01T22:49:32.164Z,22.80
2022-08-01T22:52:22.197Z,22.73
2022-08-01T22:55:11.997Z,22.79
2022-08-01T22:58:03.805Z,22.72
2022-08-01T23:00:56.845Z,22.62
2022-08-01T23:03:47.571Z,22.59
2022-08-01T23:06:40.271Z,22.43
2022-08-01T23:09:48.173Z,22.36
2022-08-01T23:12:37.885Z,22.23
2022-08-01T23:15:27.212Z,22.15
2022-08-01T23:18:19.879Z,22.02
2022-08-01T23:21:09.771Z,22.07
2022-08-01T23:24:00.015Z,22.07
2022-08-01T23:26:48.736Z,21.98
2022-08-01T23:29:37.357Z,21.96
2022-08-01T23:32:26.175Z,21.90
2022-08-01T23:35:14.712Z,21.81
2022-08-01T23:38:04.824Z,21.79
2022-08-01T23:40:53.491Z,21.70
2022-08-01T23:43:52.011Z,21.64
2022-08-01T23:46:41.010Z,21.64
2022-08-01T23:49:29.622Z,21.63
2022-08-01T23:52:20.489Z,21.54
2022-08-01T23:55:14.963Z,21.39
2022-08-01T23:58:04.031Z,21.39
